Citadel — PBOK — position and weather

sailwx.info

Track history (hours):
 
Tides and Currents Weather Stations Pressure Air Temp Water Temp Dewpoint Dewpoint Depression Visibility Wind Speed Wind Dir Waves Ship Positions

Citadel

Last reported at 2015-Jan-26 23:08 UTC. Time now 2015-Jan-28 16:21 UTC.
Position N 36°33' W 000°37'.

Length 111 m; draft 6.4 m.

Type: Cargo ship. MMSI: 245977000.

Date/timePositionNaut miles runAvg speedWind from/ knotsBaromVisibWave heightAir tempDewpointWater temp
2015-Jan-26 23:08N 36°33' W 000°37'22512.1
2015-Jan-26 04:33N 36°00' W 005°13'1313.4
2015-Jan-26 03:33N 35°57' W 005°29'15712.1
2015-Jan-25 14:33N 36°27' W 008°41'1212.2
2015-Jan-25 13:33N 36°30' W 008°56'2611.7
2015-Jan-25 11:21N 36°41' W 009°24'1012.0
2015-Jan-25 10:33N 36°49' W 009°32'1212.2
2015-Jan-25 09:33N 37°01' W 009°36'1211.9
2015-Jan-25 08:32N 37°13' W 009°39'2412.0
2015-Jan-25 06:33N 37°36' W 009°46'1212.4
2015-Jan-25 05:33N 37°48' W 009°49'1512.2
2015-Jan-25 04:21N 38°02' W 009°54'1011.8
2015-Jan-25 03:31N 38°12' W 009°57'1212.1
2015-Jan-25 02:33N 38°23' W 009°60'1212.5
2015-Jan-25 01:33N 38°35' W 010°03'1212.4
2015-Jan-25 00:33N 38°48' W 010°05'1212.1
2015-Jan-24 23:33N 38°60' W 010°05'  
2015-Jan-21 20:21N 50°29' W 000°01'1211.1
2015-Jan-21 19:15N 50°33' E 000°17'912.6
2015-Jan-21 18:33N 50°36' E 000°31'1313.3
2015-Jan-21 17:33N 50°42' E 000°49'1712.7
2015-Jan-21 16:13N 50°52' E 001°11'812.0
2015-Jan-21 15:33N 50°57' E 001°21'1010.4
2015-Jan-21 14:33N 51°04' E 001°33'9 8.6
2015-Jan-21 13:33N 51°10' E 001°42'9 8.8
2015-Jan-21 12:33N 51°17' E 001°51'10 9.8
2015-Jan-21 11:34N 51°25' E 002°01'1111.4
2015-Jan-21 10:33N 51°21' E 002°18'1312.5
2015-Jan-21 09:33N 51°22' E 002°38'1212.2
2015-Jan-21 08:33N 51°23' E 002°58'1313.5
2015-Jan-21 07:33N 51°25' E 003°19'1313.4
2015-Jan-21 06:33N 51°26' E 003°40'9 8.6
2015-Jan-21 05:33N 51°20' E 003°49'3 3.3
2015-Jan-21 04:33N 51°17' E 003°51'0 0.0
2015-Jan-21 03:33N 51°17' E 003°51'0 0.0
2015-Jan-21 02:33N 51°17' E 003°51'0 0.0
2015-Jan-21 01:33N 51°17' E 003°51'0 0.0
2015-Jan-21 00:33N 51°17' E 003°51'0 0.0
2015-Jan-20 23:33N 51°17' E 003°51'0 0.0
2015-Jan-20 22:33N 51°17' E 003°51'0 0.0
2015-Jan-20 21:33N 51°17' E 003°51'0 0.0
2015-Jan-20 20:33N 51°17' E 003°51'0 0.0
2015-Jan-20 19:33N 51°17' E 003°51'0 0.0
2015-Jan-20 18:33N 51°17' E 003°51'0 0.0
2015-Jan-20 17:33N 51°17' E 003°51'0 0.0
2015-Jan-20 16:33N 51°17' E 003°51'0 0.0
2015-Jan-20 15:33N 51°17' E 003°51'0 0.0
2015-Jan-20 14:33N 51°17' E 003°51'0 0.0
2015-Jan-20 13:33N 51°17' E 003°51'0 0.0
2015-Jan-20 12:33N 51°17' E 003°51'0 0.0
2015-Jan-20 11:33N 51°17' E 003°51'0 0.0
2015-Jan-20 10:33N 51°17' E 003°51'0 0.0
2015-Jan-20 09:33N 51°17' E 003°51'0 0.0
2015-Jan-20 08:33N 51°17' E 003°51'0 0.0
2015-Jan-20 07:33N 51°17' E 003°51'0 0.0
2015-Jan-20 06:33N 51°17' E 003°51'0 0.0
2015-Jan-20 05:33N 51°17' E 003°51'1 0.9
2015-Jan-20 04:33N 51°16' E 003°50'0 0.1
2015-Jan-20 03:33N 51°15' E 003°50'0 0.0
2015-Jan-20 02:33N 51°15' E 003°50'0 0.0
2015-Jan-20 01:33N 51°15' E 003°50'0 0.0
2015-Jan-20 00:33N 51°15' E 003°50'0 0.0
2015-Jan-19 23:33N 51°15' E 003°50'0 0.0
2015-Jan-19 22:33N 51°15' E 003°50'0 0.0
2015-Jan-19 21:33N 51°15' E 003°50'0 0.0
2015-Jan-19 20:33N 51°15' E 003°50'0 0.0
2015-Jan-19 19:33N 51°15' E 003°50'0 0.0
2015-Jan-19 18:33N 51°15' E 003°50'0 0.0
2015-Jan-19 17:33N 51°15' E 003°50'0 0.0
2015-Jan-19 16:33N 51°15' E 003°50'0 0.0
2015-Jan-19 15:33N 51°15' E 003°50'0 0.0
2015-Jan-19 14:33N 51°15' E 003°50'0 0.0
2015-Jan-19 13:33N 51°15' E 003°50'0 0.0
2015-Jan-19 12:33N 51°15' E 003°50'0 0.0
2015-Jan-19 11:33N 51°15' E 003°50'0 0.0
2015-Jan-19 10:33N 51°15' E 003°50'0 0.0
2015-Jan-19 09:33N 51°15' E 003°50'0 0.0
2015-Jan-19 08:33N 51°15' E 003°50'0 0.0
2015-Jan-19 07:33N 51°15' E 003°50'0 0.0
2015-Jan-19 06:33N 51°15' E 003°50'0 0.0
2015-Jan-19 05:33N 51°15' E 003°50'0 0.0
2015-Jan-19 04:33N 51°15' E 003°50'0 0.0
2015-Jan-19 03:33N 51°15' E 003°50'0 0.0
2015-Jan-19 02:33N 51°15' E 003°50'0 0.0
2015-Jan-19 01:33N 51°15' E 003°50'0 0.0
2015-Jan-19 00:33N 51°15' E 003°50'0 0.0
2015-Jan-18 23:33N 51°15' E 003°50'0 0.0
2015-Jan-18 22:33N 51°15' E 003°50'0 0.0
2015-Jan-18 21:33N 51°15' E 003°50'0 0.0
2015-Jan-18 20:33N 51°15' E 003°50'0 0.0
2015-Jan-18 19:33N 51°15' E 003°50'0 0.0
2015-Jan-18 18:33N 51°15' E 003°50'0 0.0
2015-Jan-18 17:33N 51°15' E 003°50'0 0.0
2015-Jan-18 16:33N 51°15' E 003°50'0 0.0
2015-Jan-18 15:33N 51°15' E 003°50'0 0.0
2015-Jan-18 14:33N 51°15' E 003°50'0 0.0
2015-Jan-18 13:33N 51°15' E 003°50'0 0.0
2015-Jan-18 12:33N 51°15' E 003°50'0 0.0
2015-Jan-18 11:33N 51°15' E 003°50'0 0.0
2015-Jan-18 10:33N 51°15' E 003°50'0 0.0
2015-Jan-18 09:33N 51°15' E 003°50'0 0.0
2015-Jan-18 08:33N 51°15' E 003°50'0 0.0
2015-Jan-18 07:33N 51°15' E 003°50'0 0.0
2015-Jan-18 06:33N 51°15' E 003°50'0 0.0
2015-Jan-18 05:33N 51°15' E 003°50'0 0.0
2015-Jan-18 04:33N 51°15' E 003°50'0 0.0
2015-Jan-18 03:33N 51°15' E 003°50'0 0.0
2015-Jan-18 02:33N 51°15' E 003°50'0 0.0
2015-Jan-18 01:33N 51°15' E 003°50'0 0.0
2015-Jan-18 00:33N 51°15' E 003°50'0 0.0
2015-Jan-17 23:33N 51°15' E 003°50'0 0.0
2015-Jan-17 22:33N 51°15' E 003°50'0 0.0
2015-Jan-17 21:33N 51°15' E 003°50'0 0.0
2015-Jan-17 20:33N 51°15' E 003°50'0 0.0
2015-Jan-17 19:33N 51°15' E 003°50'0 0.0
2015-Jan-17 18:33N 51°15' E 003°50'0 0.0
2015-Jan-17 17:33N 51°15' E 003°50'0 0.0
2015-Jan-17 16:33N 51°15' E 003°50'0 0.0
2015-Jan-17 15:33N 51°15' E 003°50'0 0.0
2015-Jan-17 14:33N 51°15' E 003°50'0 0.0
2015-Jan-17 13:34N 51°15' E 003°50'0 0.0
2015-Jan-17 12:33N 51°15' E 003°50'0 0.0
2015-Jan-17 11:33N 51°15' E 003°50'0 0.0
2015-Jan-17 10:33N 51°15' E 003°50'0 0.0
2015-Jan-17 09:33N 51°15' E 003°50'0 0.0
2015-Jan-17 08:33N 51°15' E 003°50'0 0.0
2015-Jan-17 07:33N 51°15' E 003°50'0 0.0
2015-Jan-17 06:33N 51°15' E 003°50'0 0.0
2015-Jan-17 05:33N 51°15' E 003°50'0 0.0
2015-Jan-17 04:34N 51°15' E 003°50'0 0.0
2015-Jan-17 03:33N 51°15' E 003°50'0 0.0
2015-Jan-17 02:33N 51°15' E 003°50'0 0.0
2015-Jan-17 01:33N 51°15' E 003°50'0 0.0
2015-Jan-17 00:33N 51°15' E 003°50'0 0.0
2015-Jan-16 23:34N 51°15' E 003°50'  
Track history (hours):
 
Tides and Currents Weather Stations Pressure Air Temp Water Temp Dewpoint Dewpoint Depression Visibility Wind Speed Wind Dir Waves Ship Positions

Citadel

Last reported at 2015-Jan-26 23:08 UTC. Time now 2015-Jan-28 16:21 UTC.
Position N 36°33' W 000°37'.

Length 111 m; draft 6.4 m.

Type: Cargo ship. MMSI: 245977000.

Date/timePositionNaut miles runAvg speedWind from/ knotsBaromVisibWave heightAir tempDewpointWater temp
2015-Jan-26 23:08N 36°33' W 000°37'22512.1
2015-Jan-26 04:33N 36°00' W 005°13'1313.4
2015-Jan-26 03:33N 35°57' W 005°29'15712.1
2015-Jan-25 14:33N 36°27' W 008°41'1212.2
2015-Jan-25 13:33N 36°30' W 008°56'2611.7
2015-Jan-25 11:21N 36°41' W 009°24'1012.0
2015-Jan-25 10:33N 36°49' W 009°32'1212.2
2015-Jan-25 09:33N 37°01' W 009°36'1211.9
2015-Jan-25 08:32N 37°13' W 009°39'2412.0
2015-Jan-25 06:33N 37°36' W 009°46'1212.4
2015-Jan-25 05:33N 37°48' W 009°49'1512.2
2015-Jan-25 04:21N 38°02' W 009°54'1011.8
2015-Jan-25 03:31N 38°12' W 009°57'1212.1
2015-Jan-25 02:33N 38°23' W 009°60'1212.5
2015-Jan-25 01:33N 38°35' W 010°03'1212.4
2015-Jan-25 00:33N 38°48' W 010°05'1212.1
2015-Jan-24 23:33N 38°60' W 010°05'  
2015-Jan-21 20:21N 50°29' W 000°01'1211.1
2015-Jan-21 19:15N 50°33' E 000°17'912.6
2015-Jan-21 18:33N 50°36' E 000°31'1313.3
2015-Jan-21 17:33N 50°42' E 000°49'1712.7
2015-Jan-21 16:13N 50°52' E 001°11'812.0
2015-Jan-21 15:33N 50°57' E 001°21'1010.4
2015-Jan-21 14:33N 51°04' E 001°33'9 8.6
2015-Jan-21 13:33N 51°10' E 001°42'9 8.8
2015-Jan-21 12:33N 51°17' E 001°51'10 9.8
2015-Jan-21 11:34N 51°25' E 002°01'1111.4
2015-Jan-21 10:33N 51°21' E 002°18'1312.5
2015-Jan-21 09:33N 51°22' E 002°38'1212.2
2015-Jan-21 08:33N 51°23' E 002°58'1313.5
2015-Jan-21 07:33N 51°25' E 003°19'1313.4
2015-Jan-21 06:33N 51°26' E 003°40'9 8.6
2015-Jan-21 05:33N 51°20' E 003°49'3 3.3
2015-Jan-21 04:33N 51°17' E 003°51'0 0.0
2015-Jan-21 03:33N 51°17' E 003°51'0 0.0
2015-Jan-21 02:33N 51°17' E 003°51'0 0.0
2015-Jan-21 01:33N 51°17' E 003°51'0 0.0
2015-Jan-21 00:33N 51°17' E 003°51'0 0.0
2015-Jan-20 23:33N 51°17' E 003°51'0 0.0
2015-Jan-20 22:33N 51°17' E 003°51'0 0.0
2015-Jan-20 21:33N 51°17' E 003°51'0 0.0
2015-Jan-20 20:33N 51°17' E 003°51'0 0.0
2015-Jan-20 19:33N 51°17' E 003°51'0 0.0
2015-Jan-20 18:33N 51°17' E 003°51'0 0.0
2015-Jan-20 17:33N 51°17' E 003°51'0 0.0
2015-Jan-20 16:33N 51°17' E 003°51'0 0.0
2015-Jan-20 15:33N 51°17' E 003°51'0 0.0
2015-Jan-20 14:33N 51°17' E 003°51'0 0.0
2015-Jan-20 13:33N 51°17' E 003°51'0 0.0
2015-Jan-20 12:33N 51°17' E 003°51'0 0.0
2015-Jan-20 11:33N 51°17' E 003°51'0 0.0
2015-Jan-20 10:33N 51°17' E 003°51'0 0.0
2015-Jan-20 09:33N 51°17' E 003°51'0 0.0
2015-Jan-20 08:33N 51°17' E 003°51'0 0.0
2015-Jan-20 07:33N 51°17' E 003°51'0 0.0
2015-Jan-20 06:33N 51°17' E 003°51'0 0.0
2015-Jan-20 05:33N 51°17' E 003°51'1 0.9
2015-Jan-20 04:33N 51°16' E 003°50'0 0.1
2015-Jan-20 03:33N 51°15' E 003°50'0 0.0
2015-Jan-20 02:33N 51°15' E 003°50'0 0.0
2015-Jan-20 01:33N 51°15' E 003°50'0 0.0
2015-Jan-20 00:33N 51°15' E 003°50'0 0.0
2015-Jan-19 23:33N 51°15' E 003°50'0 0.0
2015-Jan-19 22:33N 51°15' E 003°50'0 0.0
2015-Jan-19 21:33N 51°15' E 003°50'0 0.0
2015-Jan-19 20:33N 51°15' E 003°50'0 0.0
2015-Jan-19 19:33N 51°15' E 003°50'0 0.0
2015-Jan-19 18:33N 51°15' E 003°50'0 0.0
2015-Jan-19 17:33N 51°15' E 003°50'0 0.0
2015-Jan-19 16:33N 51°15' E 003°50'0 0.0
2015-Jan-19 15:33N 51°15' E 003°50'0 0.0
2015-Jan-19 14:33N 51°15' E 003°50'0 0.0
2015-Jan-19 13:33N 51°15' E 003°50'0 0.0
2015-Jan-19 12:33N 51°15' E 003°50'0 0.0
2015-Jan-19 11:33N 51°15' E 003°50'0 0.0
2015-Jan-19 10:33N 51°15' E 003°50'0 0.0
2015-Jan-19 09:33N 51°15' E 003°50'0 0.0
2015-Jan-19 08:33N 51°15' E 003°50'0 0.0
2015-Jan-19 07:33N 51°15' E 003°50'0 0.0
2015-Jan-19 06:33N 51°15' E 003°50'0 0.0
2015-Jan-19 05:33N 51°15' E 003°50'0 0.0
2015-Jan-19 04:33N 51°15' E 003°50'0 0.0
2015-Jan-19 03:33N 51°15' E 003°50'0 0.0
2015-Jan-19 02:33N 51°15' E 003°50'0 0.0
2015-Jan-19 01:33N 51°15' E 003°50'0 0.0
2015-Jan-19 00:33N 51°15' E 003°50'0 0.0
2015-Jan-18 23:33N 51°15' E 003°50'0 0.0
2015-Jan-18 22:33N 51°15' E 003°50'0 0.0
2015-Jan-18 21:33N 51°15' E 003°50'0 0.0
2015-Jan-18 20:33N 51°15' E 003°50'0 0.0
2015-Jan-18 19:33N 51°15' E 003°50'0 0.0
2015-Jan-18 18:33N 51°15' E 003°50'0 0.0
2015-Jan-18 17:33N 51°15' E 003°50'0 0.0
2015-Jan-18 16:33N 51°15' E 003°50'0 0.0
2015-Jan-18 15:33N 51°15' E 003°50'0 0.0
2015-Jan-18 14:33N 51°15' E 003°50'0 0.0
2015-Jan-18 13:33N 51°15' E 003°50'0 0.0
2015-Jan-18 12:33N 51°15' E 003°50'0 0.0
2015-Jan-18 11:33N 51°15' E 003°50'0 0.0
2015-Jan-18 10:33N 51°15' E 003°50'0 0.0
2015-Jan-18 09:33N 51°15' E 003°50'0 0.0
2015-Jan-18 08:33N 51°15' E 003°50'0 0.0
2015-Jan-18 07:33N 51°15' E 003°50'0 0.0
2015-Jan-18 06:33N 51°15' E 003°50'0 0.0
2015-Jan-18 05:33N 51°15' E 003°50'0 0.0
2015-Jan-18 04:33N 51°15' E 003°50'0 0.0
2015-Jan-18 03:33N 51°15' E 003°50'0 0.0
2015-Jan-18 02:33N 51°15' E 003°50'0 0.0
2015-Jan-18 01:33N 51°15' E 003°50'0 0.0
2015-Jan-18 00:33N 51°15' E 003°50'0 0.0
2015-Jan-17 23:33N 51°15' E 003°50'0 0.0
2015-Jan-17 22:33N 51°15' E 003°50'0 0.0
2015-Jan-17 21:33N 51°15' E 003°50'0 0.0
2015-Jan-17 20:33N 51°15' E 003°50'0 0.0
2015-Jan-17 19:33N 51°15' E 003°50'0 0.0
2015-Jan-17 18:33N 51°15' E 003°50'0 0.0
2015-Jan-17 17:33N 51°15' E 003°50'0 0.0
2015-Jan-17 16:33N 51°15' E 003°50'0 0.0
2015-Jan-17 15:33N 51°15' E 003°50'0 0.0
2015-Jan-17 14:33N 51°15' E 003°50'0 0.0
2015-Jan-17 13:34N 51°15' E 003°50'0 0.0
2015-Jan-17 12:33N 51°15' E 003°50'0 0.0
2015-Jan-17 11:33N 51°15' E 003°50'0 0.0
2015-Jan-17 10:33N 51°15' E 003°50'0 0.0
2015-Jan-17 09:33N 51°15' E 003°50'0 0.0
2015-Jan-17 08:33N 51°15' E 003°50'0 0.0
2015-Jan-17 07:33N 51°15' E 003°50'0 0.0
2015-Jan-17 06:33N 51°15' E 003°50'0 0.0
2015-Jan-17 05:33N 51°15' E 003°50'0 0.0
2015-Jan-17 04:34N 51°15' E 003°50'0 0.0
2015-Jan-17 03:33N 51°15' E 003°50'0 0.0
2015-Jan-17 02:33N 51°15' E 003°50'0 0.0
2015-Jan-17 01:33N 51°15' E 003°50'0 0.0
2015-Jan-17 00:33N 51°15' E 003°50'0 0.0
2015-Jan-16 23:34N 51°15' E 003°50'  

Dump ship's entire track history